sensor_id;sensor_type;location;lat;lon;timestamp;P1;durP1;ratioP1;P2;durP2;ratioP2
10418;SDS011;5256;48.728;9.140;2022-07-06T00:01:54;0.30;;;0.30;;
10418;SDS011;5256;48.728;9.140;2022-07-06T00:04:20;0.20;;;0.20;;
10418;SDS011;5256;48.728;9.140;2022-07-06T00:06:46;0.30;;;0.30;;
10418;SDS011;5256;48.728;9.140;2022-07-06T00:09:12;0.20;;;0.20;;
10418;SDS011;5256;48.728;9.140;2022-07-06T00:11:37;0.30;;;0.30;;
10418;SDS011;5256;48.728;9.140;2022-07-06T00:14:03;0.30;;;0.30;;
10418;SDS011;5256;48.728;9.140;2022-07-06T00:16:29;0.30;;;0.30;;
10418;SDS011;5256;48.728;9.140;2022-07-06T00:18:55;0.30;;;0.30;;
10418;SDS011;5256;48.728;9.140;2022-07-06T00:21:21;0.43;;;0.43;;
10418;SDS011;5256;48.728;9.140;2022-07-06T00:23:47;0.40;;;0.40;;
10418;SDS011;5256;48.728;9.140;2022-07-06T00:26:12;0.20;;;0.20;;
10418;SDS011;5256;48.728;9.140;2022-07-06T00:28:38;0.30;;;0.30;;
10418;SDS011;5256;48.728;9.140;2022-07-06T00:31:04;0.27;;;0.27;;
10418;SDS011;5256;48.728;9.140;2022-07-06T00:33:30;0.30;;;0.30;;
10418;SDS011;5256;48.728;9.140;2022-07-06T00:35:56;0.30;;;0.30;;
10418;SDS011;5256;48.728;9.140;2022-07-06T00:38:22;0.30;;;0.30;;
10418;SDS011;5256;48.728;9.140;2022-07-06T00:40:48;0.30;;;0.30;;
10418;SDS011;5256;48.728;9.140;2022-07-06T00:43:13;0.20;;;0.20;;
10418;SDS011;5256;48.728;9.140;2022-07-06T00:45:39;0.30;;;0.30;;
10418;SDS011;5256;48.728;9.140;2022-07-06T00:48:04;0.20;;;0.20;;
10418;SDS011;5256;48.728;9.140;2022-07-06T00:50:30;0.30;;;0.30;;
10418;SDS011;5256;48.728;9.140;2022-07-06T00:52:57;0.20;;;0.20;;
10418;SDS011;5256;48.728;9.140;2022-07-06T00:55:26;0.20;;;0.20;;
10418;SDS011;5256;48.728;9.140;2022-07-06T00:57:54;0.30;;;0.30;;
10418;SDS011;5256;48.728;9.140;2022-07-06T01:00:22;0.40;;;0.40;;
10418;SDS011;5256;48.728;9.140;2022-07-06T01:02:49;0.27;;;0.27;;
10418;SDS011;5256;48.728;9.140;2022-07-06T01:05:15;0.30;;;0.30;;
10418;SDS011;5256;48.728;9.140;2022-07-06T01:07:43;0.30;;;0.30;;
10418;SDS011;5256;48.728;9.140;2022-07-06T01:10:10;0.30;;;0.30;;
10418;SDS011;5256;48.728;9.140;2022-07-06T01:12:38;0.40;;;0.40;;
10418;SDS011;5256;48.728;9.140;2022-07-06T01:15:06;0.30;;;0.30;;
10418;SDS011;5256;48.728;9.140;2022-07-06T01:17:35;0.37;;;0.37;;
10418;SDS011;5256;48.728;9.140;2022-07-06T01:20:12;0.40;;;0.40;;
10418;SDS011;5256;48.728;9.140;2022-07-06T01:22:46;0.30;;;0.30;;
10418;SDS011;5256;48.728;9.140;2022-07-06T01:25:14;0.30;;;0.30;;
10418;SDS011;5256;48.728;9.140;2022-07-06T01:27:40;0.30;;;0.30;;
10418;SDS011;5256;48.728;9.140;2022-07-06T01:30:10;0.30;;;0.30;;
10418;SDS011;5256;48.728;9.140;2022-07-06T01:32:37;0.30;;;0.30;;
10418;SDS011;5256;48.728;9.140;2022-07-06T01:35:05;0.30;;;0.30;;
10418;SDS011;5256;48.728;9.140;2022-07-06T01:37:32;0.30;;;0.30;;
10418;SDS011;5256;48.728;9.140;2022-07-06T01:39:58;0.30;;;0.30;;
10418;SDS011;5256;48.728;9.140;2022-07-06T01:42:25;0.30;;;0.30;;
10418;SDS011;5256;48.728;9.140;2022-07-06T01:44:50;0.30;;;0.30;;
10418;SDS011;5256;48.728;9.140;2022-07-06T01:47:16;0.30;;;0.30;;
10418;SDS011;5256;48.728;9.140;2022-07-06T01:49:42;0.30;;;0.30;;
10418;SDS011;5256;48.728;9.140;2022-07-06T01:52:07;0.30;;;0.30;;
10418;SDS011;5256;48.728;9.140;2022-07-06T01:54:33;0.30;;;0.30;;
10418;SDS011;5256;48.728;9.140;2022-07-06T01:56:58;0.30;;;0.30;;
10418;SDS011;5256;48.728;9.140;2022-07-06T01:59:24;0.40;;;0.40;;
10418;SDS011;5256;48.728;9.140;2022-07-06T02:01:49;0.30;;;0.30;;
10418;SDS011;5256;48.728;9.140;2022-07-06T02:04:15;0.23;;;0.23;;
10418;SDS011;5256;48.728;9.140;2022-07-06T02:06:41;0.30;;;0.30;;
10418;SDS011;5256;48.728;9.140;2022-07-06T02:09:06;0.30;;;0.30;;
10418;SDS011;5256;48.728;9.140;2022-07-06T02:11:32;0.40;;;0.40;;
10418;SDS011;5256;48.728;9.140;2022-07-06T02:13:57;0.30;;;0.30;;
10418;SDS011;5256;48.728;9.140;2022-07-06T02:16:23;0.40;;;0.40;;
10418;SDS011;5256;48.728;9.140;2022-07-06T02:18:49;0.30;;;0.30;;
10418;SDS011;5256;48.728;9.140;2022-07-06T02:21:14;0.37;;;0.37;;
10418;SDS011;5256;48.728;9.140;2022-07-06T02:23:40;0.40;;;0.40;;
10418;SDS011;5256;48.728;9.140;2022-07-06T02:26:06;0.40;;;0.40;;
10418;SDS011;5256;48.728;9.140;2022-07-06T02:28:32;0.30;;;0.30;;
10418;SDS011;5256;48.728;9.140;2022-07-06T02:30:57;0.20;;;0.20;;
10418;SDS011;5256;48.728;9.140;2022-07-06T02:33:24;0.20;;;0.20;;
10418;SDS011;5256;48.728;9.140;2022-07-06T02:35:50;0.30;;;0.30;;
10418;SDS011;5256;48.728;9.140;2022-07-06T02:38:15;0.30;;;0.30;;
10418;SDS011;5256;48.728;9.140;2022-07-06T02:40:41;0.40;;;0.40;;
10418;SDS011;5256;48.728;9.140;2022-07-06T02:43:06;0.37;;;0.37;;
10418;SDS011;5256;48.728;9.140;2022-07-06T02:45:32;0.20;;;0.20;;
10418;SDS011;5256;48.728;9.140;2022-07-06T02:47:58;0.50;;;0.50;;
10418;SDS011;5256;48.728;9.140;2022-07-06T02:50:24;0.33;;;0.33;;
10418;SDS011;5256;48.728;9.140;2022-07-06T02:52:50;0.30;;;0.30;;
10418;SDS011;5256;48.728;9.140;2022-07-06T02:55:16;0.40;;;0.40;;
10418;SDS011;5256;48.728;9.140;2022-07-06T02:57:41;0.30;;;0.30;;
10418;SDS011;5256;48.728;9.140;2022-07-06T03:00:08;0.30;;;0.30;;
10418;SDS011;5256;48.728;9.140;2022-07-06T03:02:34;0.30;;;0.30;;
10418;SDS011;5256;48.728;9.140;2022-07-06T03:05:00;0.30;;;0.30;;
10418;SDS011;5256;48.728;9.140;2022-07-06T03:07:26;0.37;;;0.37;;
10418;SDS011;5256;48.728;9.140;2022-07-06T03:09:51;0.30;;;0.30;;
10418;SDS011;5256;48.728;9.140;2022-07-06T03:12:17;0.30;;;0.30;;
10418;SDS011;5256;48.728;9.140;2022-07-06T03:14:43;0.30;;;0.30;;
10418;SDS011;5256;48.728;9.140;2022-07-06T03:17:08;0.40;;;0.40;;
10418;SDS011;5256;48.728;9.140;2022-07-06T03:19:34;0.30;;;0.30;;
10418;SDS011;5256;48.728;9.140;2022-07-06T03:22:00;0.40;;;0.40;;
10418;SDS011;5256;48.728;9.140;2022-07-06T03:24:25;0.33;;;0.33;;
10418;SDS011;5256;48.728;9.140;2022-07-06T03:26:51;0.33;;;0.33;;
10418;SDS011;5256;48.728;9.140;2022-07-06T03:29:17;0.20;;;0.20;;
10418;SDS011;5256;48.728;9.140;2022-07-06T03:31:42;0.30;;;0.30;;
10418;SDS011;5256;48.728;9.140;2022-07-06T03:34:08;0.30;;;0.30;;
10418;SDS011;5256;48.728;9.140;2022-07-06T03:36:33;0.33;;;0.33;;
10418;SDS011;5256;48.728;9.140;2022-07-06T03:38:59;0.50;;;0.50;;
10418;SDS011;5256;48.728;9.140;2022-07-06T03:41:25;0.40;;;0.40;;
10418;SDS011;5256;48.728;9.140;2022-07-06T03:43:51;0.30;;;0.30;;
10418;SDS011;5256;48.728;9.140;2022-07-06T03:46:16;0.30;;;0.30;;
10418;SDS011;5256;48.728;9.140;2022-07-06T03:48:42;0.33;;;0.33;;
10418;SDS011;5256;48.728;9.140;2022-07-06T03:51:07;0.30;;;0.30;;
10418;SDS011;5256;48.728;9.140;2022-07-06T03:53:35;0.40;;;0.40;;
10418;SDS011;5256;48.728;9.140;2022-07-06T03:56:00;0.30;;;0.30;;
10418;SDS011;5256;48.728;9.140;2022-07-06T03:58:45;0.37;;;0.37;;
10418;SDS011;5256;48.728;9.140;2022-07-06T04:01:10;0.20;;;0.20;;
10418;SDS011;5256;48.728;9.140;2022-07-06T04:03:36;0.40;;;0.40;;
10418;SDS011;5256;48.728;9.140;2022-07-06T04:06:01;0.30;;;0.30;;
10418;SDS011;5256;48.728;9.140;2022-07-06T04:08:27;0.40;;;0.40;;
10418;SDS011;5256;48.728;9.140;2022-07-06T04:10:52;0.30;;;0.30;;
10418;SDS011;5256;48.728;9.140;2022-07-06T04:13:18;0.30;;;0.30;;
10418;SDS011;5256;48.728;9.140;2022-07-06T04:15:44;0.30;;;0.30;;
10418;SDS011;5256;48.728;9.140;2022-07-06T04:18:09;0.30;;;0.30;;
10418;SDS011;5256;48.728;9.140;2022-07-06T04:20:35;0.30;;;0.30;;
10418;SDS011;5256;48.728;9.140;2022-07-06T04:23:00;0.30;;;0.30;;
10418;SDS011;5256;48.728;9.140;2022-07-06T04:25:26;0.30;;;0.30;;
10418;SDS011;5256;48.728;9.140;2022-07-06T04:27:52;0.30;;;0.30;;
10418;SDS011;5256;48.728;9.140;2022-07-06T04:30:18;0.30;;;0.30;;
10418;SDS011;5256;48.728;9.140;2022-07-06T04:32:43;0.33;;;0.33;;
10418;SDS011;5256;48.728;9.140;2022-07-06T04:35:09;0.37;;;0.37;;
10418;SDS011;5256;48.728;9.140;2022-07-06T04:37:35;0.30;;;0.30;;
10418;SDS011;5256;48.728;9.140;2022-07-06T04:40:01;0.40;;;0.40;;
10418;SDS011;5256;48.728;9.140;2022-07-06T04:42:27;0.30;;;0.30;;
10418;SDS011;5256;48.728;9.140;2022-07-06T04:44:52;0.30;;;0.30;;
10418;SDS011;5256;48.728;9.140;2022-07-06T04:47:18;0.30;;;0.30;;
10418;SDS011;5256;48.728;9.140;2022-07-06T04:49:44;0.30;;;0.30;;
10418;SDS011;5256;48.728;9.140;2022-07-06T04:52:09;0.30;;;0.30;;
10418;SDS011;5256;48.728;9.140;2022-07-06T04:54:35;0.40;;;0.40;;
10418;SDS011;5256;48.728;9.140;2022-07-06T04:57:01;0.40;;;0.40;;
10418;SDS011;5256;48.728;9.140;2022-07-06T04:59:26;0.20;;;0.20;;
10418;SDS011;5256;48.728;9.140;2022-07-06T05:01:52;0.30;;;0.30;;
10418;SDS011;5256;48.728;9.140;2022-07-06T05:04:17;0.40;;;0.40;;
10418;SDS011;5256;48.728;9.140;2022-07-06T05:06:44;0.30;;;0.30;;
10418;SDS011;5256;48.728;9.140;2022-07-06T05:09:11;0.30;;;0.30;;
10418;SDS011;5256;48.728;9.140;2022-07-06T05:11:37;0.30;;;0.30;;
10418;SDS011;5256;48.728;9.140;2022-07-06T05:14:03;0.30;;;0.30;;
10418;SDS011;5256;48.728;9.140;2022-07-06T05:16:29;0.37;;;0.37;;
10418;SDS011;5256;48.728;9.140;2022-07-06T05:18:55;0.30;;;0.30;;
10418;SDS011;5256;48.728;9.140;2022-07-06T05:21:21;0.40;;;0.40;;
10418;SDS011;5256;48.728;9.140;2022-07-06T05:23:46;0.17;;;0.17;;
10418;SDS011;5256;48.728;9.140;2022-07-06T05:26:12;0.30;;;0.30;;
10418;SDS011;5256;48.728;9.140;2022-07-06T05:28:37;0.20;;;0.20;;
10418;SDS011;5256;48.728;9.140;2022-07-06T05:31:03;0.20;;;0.20;;
10418;SDS011;5256;48.728;9.140;2022-07-06T05:33:28;0.30;;;0.30;;
10418;SDS011;5256;48.728;9.140;2022-07-06T05:35:54;0.30;;;0.30;;
10418;SDS011;5256;48.728;9.140;2022-07-06T05:38:20;0.20;;;0.20;;
10418;SDS011;5256;48.728;9.140;2022-07-06T05:40:45;0.20;;;0.20;;
10418;SDS011;5256;48.728;9.140;2022-07-06T05:43:11;0.20;;;0.20;;
10418;SDS011;5256;48.728;9.140;2022-07-06T05:45:37;0.20;;;0.20;;
10418;SDS011;5256;48.728;9.140;2022-07-06T05:48:03;0.20;;;0.20;;
10418;SDS011;5256;48.728;9.140;2022-07-06T05:50:47;0.27;;;0.27;;
10418;SDS011;5256;48.728;9.140;2022-07-06T05:53:12;0.20;;;0.20;;
10418;SDS011;5256;48.728;9.140;2022-07-06T05:55:38;0.20;;;0.20;;
10418;SDS011;5256;48.728;9.140;2022-07-06T05:58:04;0.20;;;0.20;;
10418;SDS011;5256;48.728;9.140;2022-07-06T06:00:29;0.23;;;0.23;;
10418;SDS011;5256;48.728;9.140;2022-07-06T06:02:55;0.20;;;0.20;;
10418;SDS011;5256;48.728;9.140;2022-07-06T06:05:21;0.20;;;0.20;;
10418;SDS011;5256;48.728;9.140;2022-07-06T06:07:47;0.20;;;0.20;;
10418;SDS011;5256;48.728;9.140;2022-07-06T06:10:15;0.20;;;0.20;;
10418;SDS011;5256;48.728;9.140;2022-07-06T06:12:42;0.30;;;0.30;;
10418;SDS011;5256;48.728;9.140;2022-07-06T06:15:08;0.20;;;0.20;;
10418;SDS011;5256;48.728;9.140;2022-07-06T06:17:38;0.20;;;0.20;;
10418;SDS011;5256;48.728;9.140;2022-07-06T06:20:04;0.20;;;0.20;;
10418;SDS011;5256;48.728;9.140;2022-07-06T06:22:32;0.20;;;0.20;;
10418;SDS011;5256;48.728;9.140;2022-07-06T06:25:09;0.20;;;0.20;;
10418;SDS011;5256;48.728;9.140;2022-07-06T06:27:35;0.30;;;0.30;;
10418;SDS011;5256;48.728;9.140;2022-07-06T06:30:00;0.20;;;0.20;;
10418;SDS011;5256;48.728;9.140;2022-07-06T06:32:26;0.30;;;0.30;;
10418;SDS011;5256;48.728;9.140;2022-07-06T06:34:51;0.20;;;0.20;;
10418;SDS011;5256;48.728;9.140;2022-07-06T06:37:17;0.20;;;0.20;;
10418;SDS011;5256;48.728;9.140;2022-07-06T06:39:43;0.20;;;0.20;;
10418;SDS011;5256;48.728;9.140;2022-07-06T06:42:08;0.13;;;0.13;;
10418;SDS011;5256;48.728;9.140;2022-07-06T06:44:34;0.20;;;0.20;;
10418;SDS011;5256;48.728;9.140;2022-07-06T06:46:59;0.20;;;0.20;;
10418;SDS011;5256;48.728;9.140;2022-07-06T06:49:25;0.10;;;0.10;;
10418;SDS011;5256;48.728;9.140;2022-07-06T06:51:50;0.10;;;0.10;;
10418;SDS011;5256;48.728;9.140;2022-07-06T06:54:16;0.10;;;0.10;;
10418;SDS011;5256;48.728;9.140;2022-07-06T06:56:41;0.10;;;0.10;;
10418;SDS011;5256;48.728;9.140;2022-07-06T06:59:07;0.20;;;0.20;;
10418;SDS011;5256;48.728;9.140;2022-07-06T07:01:33;0.20;;;0.20;;
10418;SDS011;5256;48.728;9.140;2022-07-06T07:03:58;0.10;;;0.10;;
10418;SDS011;5256;48.728;9.140;2022-07-06T07:06:24;0.10;;;0.10;;
10418;SDS011;5256;48.728;9.140;2022-07-06T07:08:50;0.20;;;0.20;;
10418;SDS011;5256;48.728;9.140;2022-07-06T07:11:15;0.20;;;0.20;;
10418;SDS011;5256;48.728;9.140;2022-07-06T07:13:41;0.10;;;0.10;;
10418;SDS011;5256;48.728;9.140;2022-07-06T07:16:06;0.13;;;0.13;;
10418;SDS011;5256;48.728;9.140;2022-07-06T07:18:32;0.10;;;0.10;;
10418;SDS011;5256;48.728;9.140;2022-07-06T07:20:58;0.10;;;0.10;;
10418;SDS011;5256;48.728;9.140;2022-07-06T07:23:23;0.20;;;0.20;;
10418;SDS011;5256;48.728;9.140;2022-07-06T07:25:49;0.10;;;0.10;;
10418;SDS011;5256;48.728;9.140;2022-07-06T07:28:14;0.20;;;0.20;;
10418;SDS011;5256;48.728;9.140;2022-07-06T07:30:40;0.20;;;0.20;;
10418;SDS011;5256;48.728;9.140;2022-07-06T07:33:06;0.10;;;0.10;;
10418;SDS011;5256;48.728;9.140;2022-07-06T07:35:31;0.20;;;0.20;;
10418;SDS011;5256;48.728;9.140;2022-07-06T07:37:57;0.20;;;0.20;;
10418;SDS011;5256;48.728;9.140;2022-07-06T07:40:23;0.20;;;0.20;;
10418;SDS011;5256;48.728;9.140;2022-07-06T07:42:49;0.20;;;0.20;;
10418;SDS011;5256;48.728;9.140;2022-07-06T07:45:14;0.20;;;0.20;;
10418;SDS011;5256;48.728;9.140;2022-07-06T07:47:40;0.20;;;0.20;;
10418;SDS011;5256;48.728;9.140;2022-07-06T07:50:06;0.20;;;0.20;;
10418;SDS011;5256;48.728;9.140;2022-07-06T07:52:32;0.20;;;0.20;;
10418;SDS011;5256;48.728;9.140;2022-07-06T07:54:58;0.20;;;0.20;;
10418;SDS011;5256;48.728;9.140;2022-07-06T07:57:31;0.20;;;0.20;;
10418;SDS011;5256;48.728;9.140;2022-07-06T07:59:56;0.20;;;0.20;;
10418;SDS011;5256;48.728;9.140;2022-07-06T08:02:22;0.10;;;0.10;;
10418;SDS011;5256;48.728;9.140;2022-07-06T08:04:47;0.10;;;0.10;;
10418;SDS011;5256;48.728;9.140;2022-07-06T08:07:13;0.13;;;0.13;;
10418;SDS011;5256;48.728;9.140;2022-07-06T08:09:38;0.10;;;0.10;;
10418;SDS011;5256;48.728;9.140;2022-07-06T08:12:04;0.10;;;0.10;;
10418;SDS011;5256;48.728;9.140;2022-07-06T08:14:30;0.10;;;0.10;;
10418;SDS011;5256;48.728;9.140;2022-07-06T08:16:56;0.10;;;0.10;;
10418;SDS011;5256;48.728;9.140;2022-07-06T08:19:22;0.10;;;0.10;;
10418;SDS011;5256;48.728;9.140;2022-07-06T08:21:48;0.20;;;0.20;;
10418;SDS011;5256;48.728;9.140;2022-07-06T08:24:13;0.10;;;0.10;;
10418;SDS011;5256;48.728;9.140;2022-07-06T08:26:39;0.10;;;0.10;;
10418;SDS011;5256;48.728;9.140;2022-07-06T08:29:05;0.10;;;0.10;;
10418;SDS011;5256;48.728;9.140;2022-07-06T08:31:30;0.20;;;0.20;;
10418;SDS011;5256;48.728;9.140;2022-07-06T08:33:57;0.17;;;0.17;;
10418;SDS011;5256;48.728;9.140;2022-07-06T08:36:24;0.20;;;0.20;;
10418;SDS011;5256;48.728;9.140;2022-07-06T08:38:49;0.20;;;0.20;;
10418;SDS011;5256;48.728;9.140;2022-07-06T08:41:15;0.20;;;0.20;;
10418;SDS011;5256;48.728;9.140;2022-07-06T08:43:42;0.20;;;0.20;;
10418;SDS011;5256;48.728;9.140;2022-07-06T08:46:07;0.10;;;0.10;;
10418;SDS011;5256;48.728;9.140;2022-07-06T08:48:37;0.20;;;0.20;;
10418;SDS011;5256;48.728;9.140;2022-07-06T08:51:05;0.17;;;0.17;;
10418;SDS011;5256;48.728;9.140;2022-07-06T08:53:31;0.20;;;0.20;;
10418;SDS011;5256;48.728;9.140;2022-07-06T08:55:58;0.17;;;0.17;;
10418;SDS011;5256;48.728;9.140;2022-07-06T08:58:24;0.10;;;0.10;;
10418;SDS011;5256;48.728;9.140;2022-07-06T09:00:51;0.10;;;0.10;;
10418;SDS011;5256;48.728;9.140;2022-07-06T09:03:18;0.13;;;0.13;;
10418;SDS011;5256;48.728;9.140;2022-07-06T09:05:45;0.20;;;0.20;;
10418;SDS011;5256;48.728;9.140;2022-07-06T09:08:11;0.10;;;0.10;;
10418;SDS011;5256;48.728;9.140;2022-07-06T09:10:38;0.10;;;0.10;;
10418;SDS011;5256;48.728;9.140;2022-07-06T09:13:04;0.20;;;0.20;;
10418;SDS011;5256;48.728;9.140;2022-07-06T09:15:31;0.10;;;0.10;;
10418;SDS011;5256;48.728;9.140;2022-07-06T09:17:58;0.10;;;0.10;;
10418;SDS011;5256;48.728;9.140;2022-07-06T09:20:23;0.20;;;0.20;;
10418;SDS011;5256;48.728;9.140;2022-07-06T09:22:49;0.13;;;0.13;;
10418;SDS011;5256;48.728;9.140;2022-07-06T09:25:15;0.10;;;0.10;;
10418;SDS011;5256;48.728;9.140;2022-07-06T09:27:45;0.20;;;0.20;;
10418;SDS011;5256;48.728;9.140;2022-07-06T09:30:12;0.10;;;0.10;;
10418;SDS011;5256;48.728;9.140;2022-07-06T09:32:39;0.10;;;0.10;;
10418;SDS011;5256;48.728;9.140;2022-07-06T09:35:30;0.10;;;0.10;;
10418;SDS011;5256;48.728;9.140;2022-07-06T09:40:36;0.10;;;0.10;;
10418;SDS011;5256;48.728;9.140;2022-07-06T09:43:09;0.10;;;0.10;;
10418;SDS011;5256;48.728;9.140;2022-07-06T09:45:37;0.20;;;0.20;;
10418;SDS011;5256;48.728;9.140;2022-07-06T09:50:44;0.10;;;0.10;;
10418;SDS011;5256;48.728;9.140;2022-07-06T09:53:11;0.10;;;0.10;;
10418;SDS011;5256;48.728;9.140;2022-07-06T09:55:38;0.10;;;0.10;;
10418;SDS011;5256;48.728;9.140;2022-07-06T09:58:07;0.17;;;0.17;;
10418;SDS011;5256;48.728;9.140;2022-07-06T10:00:33;0.20;;;0.20;;
10418;SDS011;5256;48.728;9.140;2022-07-06T10:02:59;0.10;;;0.10;;
10418;SDS011;5256;48.728;9.140;2022-07-06T10:05:26;0.13;;;0.13;;
10418;SDS011;5256;48.728;9.140;2022-07-06T10:07:55;0.10;;;0.10;;
10418;SDS011;5256;48.728;9.140;2022-07-06T10:10:25;0.10;;;0.10;;
10418;SDS011;5256;48.728;9.140;2022-07-06T10:12:52;0.10;;;0.10;;
10418;SDS011;5256;48.728;9.140;2022-07-06T10:15:21;0.10;;;0.10;;
10418;SDS011;5256;48.728;9.140;2022-07-06T10:17:51;0.10;;;0.10;;
10418;SDS011;5256;48.728;9.140;2022-07-06T10:20:17;0.10;;;0.10;;
10418;SDS011;5256;48.728;9.140;2022-07-06T10:22:45;0.10;;;0.10;;
10418;SDS011;5256;48.728;9.140;2022-07-06T10:25:17;0.10;;;0.10;;
10418;SDS011;5256;48.728;9.140;2022-07-06T10:27:44;0.10;;;0.10;;
10418;SDS011;5256;48.728;9.140;2022-07-06T10:30:11;0.10;;;0.10;;
10418;SDS011;5256;48.728;9.140;2022-07-06T10:32:38;0.17;;;0.17;;
10418;SDS011;5256;48.728;9.140;2022-07-06T10:35:05;0.10;;;0.10;;
10418;SDS011;5256;48.728;9.140;2022-07-06T10:37:31;0.20;;;0.20;;
10418;SDS011;5256;48.728;9.140;2022-07-06T10:39:58;0.10;;;0.10;;
10418;SDS011;5256;48.728;9.140;2022-07-06T10:42:47;0.10;;;0.10;;
10418;SDS011;5256;48.728;9.140;2022-07-06T10:45:59;0.10;;;0.10;;
10418;SDS011;5256;48.728;9.140;2022-07-06T10:50:40;0.10;;;0.10;;
10418;SDS011;5256;48.728;9.140;2022-07-06T10:53:11;0.10;;;0.10;;
10418;SDS011;5256;48.728;9.140;2022-07-06T10:55:39;0.10;;;0.10;;
10418;SDS011;5256;48.728;9.140;2022-07-06T10:58:06;0.10;;;0.10;;
10418;SDS011;5256;48.728;9.140;2022-07-06T11:06:22;0.10;;;0.10;;
10418;SDS011;5256;48.728;9.140;2022-07-06T11:08:54;0.10;;;0.10;;
10418;SDS011;5256;48.728;9.140;2022-07-06T11:14:00;0.10;;;0.10;;
10418;SDS011;5256;48.728;9.140;2022-07-06T11:16:27;0.10;;;0.10;;
10418;SDS011;5256;48.728;9.140;2022-07-06T11:18:59;0.10;;;0.10;;
10418;SDS011;5256;48.728;9.140;2022-07-06T11:26:48;0.20;;;0.20;;
10418;SDS011;5256;48.728;9.140;2022-07-06T11:29:15;0.10;;;0.10;;
10418;SDS011;5256;48.728;9.140;2022-07-06T11:31:44;0.10;;;0.10;;
10418;SDS011;5256;48.728;9.140;2022-07-06T11:34:12;0.10;;;0.10;;
10418;SDS011;5256;48.728;9.140;2022-07-06T11:36:42;0.10;;;0.10;;
10418;SDS011;5256;48.728;9.140;2022-07-06T11:39:08;0.10;;;0.10;;
10418;SDS011;5256;48.728;9.140;2022-07-06T11:41:33;0.10;;;0.10;;
10418;SDS011;5256;48.728;9.140;2022-07-06T11:43:59;0.10;;;0.10;;
10418;SDS011;5256;48.728;9.140;2022-07-06T11:46:26;0.10;;;0.10;;
10418;SDS011;5256;48.728;9.140;2022-07-06T11:49:00;0.10;;;0.10;;
10418;SDS011;5256;48.728;9.140;2022-07-06T11:51:29;0.17;;;0.17;;
10418;SDS011;5256;48.728;9.140;2022-07-06T11:54:00;0.10;;;0.10;;
10418;SDS011;5256;48.728;9.140;2022-07-06T11:56:27;0.10;;;0.10;;
10418;SDS011;5256;48.728;9.140;2022-07-06T11:58:55;0.10;;;0.10;;
10418;SDS011;5256;48.728;9.140;2022-07-06T12:01:22;0.10;;;0.10;;
10418;SDS011;5256;48.728;9.140;2022-07-06T12:03:49;0.10;;;0.10;;
10418;SDS011;5256;48.728;9.140;2022-07-06T12:06:19;0.20;;;0.20;;
10418;SDS011;5256;48.728;9.140;2022-07-06T12:08:49;0.13;;;0.13;;
10418;SDS011;5256;48.728;9.140;2022-07-06T12:11:16;0.10;;;0.10;;
10418;SDS011;5256;48.728;9.140;2022-07-06T12:13:44;0.10;;;0.10;;
10418;SDS011;5256;48.728;9.140;2022-07-06T12:16:10;0.10;;;0.10;;
10418;SDS011;5256;48.728;9.140;2022-07-06T12:18:37;0.10;;;0.10;;
10418;SDS011;5256;48.728;9.140;2022-07-06T12:21:06;0.20;;;0.20;;
10418;SDS011;5256;48.728;9.140;2022-07-06T12:23:41;0.10;;;0.10;;
10418;SDS011;5256;48.728;9.140;2022-07-06T12:26:09;0.10;;;0.10;;
10418;SDS011;5256;48.728;9.140;2022-07-06T12:28:35;0.20;;;0.20;;
10418;SDS011;5256;48.728;9.140;2022-07-06T12:31:01;0.10;;;0.10;;
10418;SDS011;5256;48.728;9.140;2022-07-06T12:33:27;0.20;;;0.20;;
10418;SDS011;5256;48.728;9.140;2022-07-06T12:35:53;0.20;;;0.20;;
10418;SDS011;5256;48.728;9.140;2022-07-06T12:38:26;0.20;;;0.20;;
10418;SDS011;5256;48.728;9.140;2022-07-06T12:40:52;0.10;;;0.10;;
10418;SDS011;5256;48.728;9.140;2022-07-06T12:43:34;0.20;;;0.20;;
10418;SDS011;5256;48.728;9.140;2022-07-06T12:46:22;0.10;;;0.10;;
10418;SDS011;5256;48.728;9.140;2022-07-06T12:48:57;0.10;;;0.10;;
10418;SDS011;5256;48.728;9.140;2022-07-06T12:51:23;0.17;;;0.17;;
10418;SDS011;5256;48.728;9.140;2022-07-06T12:53:49;0.17;;;0.17;;
10418;SDS011;5256;48.728;9.140;2022-07-06T12:56:15;0.10;;;0.10;;
10418;SDS011;5256;48.728;9.140;2022-07-06T12:58:55;0.20;;;0.20;;
10418;SDS011;5256;48.728;9.140;2022-07-06T13:01:24;0.10;;;0.10;;
10418;SDS011;5256;48.728;9.140;2022-07-06T13:03:56;0.20;;;0.20;;
10418;SDS011;5256;48.728;9.140;2022-07-06T13:06:29;0.20;;;0.20;;
10418;SDS011;5256;48.728;9.140;2022-07-06T13:08:59;0.10;;;0.10;;
10418;SDS011;5256;48.728;9.140;2022-07-06T13:11:25;0.20;;;0.20;;
10418;SDS011;5256;48.728;9.140;2022-07-06T13:13:51;0.20;;;0.20;;
10418;SDS011;5256;48.728;9.140;2022-07-06T13:16:16;0.20;;;0.20;;
10418;SDS011;5256;48.728;9.140;2022-07-06T13:18:42;0.20;;;0.20;;
10418;SDS011;5256;48.728;9.140;2022-07-06T13:21:08;0.23;;;0.23;;
10418;SDS011;5256;48.728;9.140;2022-07-06T13:23:33;0.10;;;0.10;;
10418;SDS011;5256;48.728;9.140;2022-07-06T13:25:59;0.20;;;0.20;;
10418;SDS011;5256;48.728;9.140;2022-07-06T13:28:25;0.10;;;0.10;;
10418;SDS011;5256;48.728;9.140;2022-07-06T13:30:50;0.10;;;0.10;;
10418;SDS011;5256;48.728;9.140;2022-07-06T13:33:16;0.10;;;0.10;;
10418;SDS011;5256;48.728;9.140;2022-07-06T13:35:41;0.20;;;0.20;;
10418;SDS011;5256;48.728;9.140;2022-07-06T13:38:07;0.20;;;0.20;;
10418;SDS011;5256;48.728;9.140;2022-07-06T13:40:33;0.20;;;0.20;;
10418;SDS011;5256;48.728;9.140;2022-07-06T13:43:00;0.17;;;0.17;;
10418;SDS011;5256;48.728;9.140;2022-07-06T13:45:26;0.10;;;0.10;;
10418;SDS011;5256;48.728;9.140;2022-07-06T13:47:52;0.10;;;0.10;;
10418;SDS011;5256;48.728;9.140;2022-07-06T13:50:17;0.20;;;0.20;;
10418;SDS011;5256;48.728;9.140;2022-07-06T13:52:43;0.10;;;0.10;;
10418;SDS011;5256;48.728;9.140;2022-07-06T13:55:09;0.10;;;0.10;;
10418;SDS011;5256;48.728;9.140;2022-07-06T13:57:34;0.10;;;0.10;;
10418;SDS011;5256;48.728;9.140;2022-07-06T14:00:00;0.10;;;0.10;;
10418;SDS011;5256;48.728;9.140;2022-07-06T14:02:26;0.10;;;0.10;;
10418;SDS011;5256;48.728;9.140;2022-07-06T14:04:51;0.10;;;0.10;;
10418;SDS011;5256;48.728;9.140;2022-07-06T14:07:17;0.10;;;0.10;;
10418;SDS011;5256;48.728;9.140;2022-07-06T14:09:43;0.20;;;0.20;;
10418;SDS011;5256;48.728;9.140;2022-07-06T14:12:08;0.10;;;0.10;;
10418;SDS011;5256;48.728;9.140;2022-07-06T14:14:34;0.10;;;0.10;;
10418;SDS011;5256;48.728;9.140;2022-07-06T14:16:59;0.10;;;0.10;;
10418;SDS011;5256;48.728;9.140;2022-07-06T14:19:25;0.10;;;0.10;;
10418;SDS011;5256;48.728;9.140;2022-07-06T14:21:51;0.00;;;0.00;;
10418;SDS011;5256;48.728;9.140;2022-07-06T14:24:16;0.10;;;0.10;;
10418;SDS011;5256;48.728;9.140;2022-07-06T14:26:42;0.10;;;0.10;;
10418;SDS011;5256;48.728;9.140;2022-07-06T14:29:08;0.10;;;0.10;;
10418;SDS011;5256;48.728;9.140;2022-07-06T14:31:34;0.10;;;0.10;;
10418;SDS011;5256;48.728;9.140;2022-07-06T14:34:00;0.10;;;0.10;;
10418;SDS011;5256;48.728;9.140;2022-07-06T14:36:25;0.10;;;0.10;;
10418;SDS011;5256;48.728;9.140;2022-07-06T14:38:51;0.10;;;0.10;;
10418;SDS011;5256;48.728;9.140;2022-07-06T14:41:16;0.10;;;0.10;;
10418;SDS011;5256;48.728;9.140;2022-07-06T14:43:42;0.10;;;0.10;;
10418;SDS011;5256;48.728;9.140;2022-07-06T14:46:08;0.10;;;0.10;;
10418;SDS011;5256;48.728;9.140;2022-07-06T14:48:33;0.10;;;0.10;;
10418;SDS011;5256;48.728;9.140;2022-07-06T14:50:59;0.00;;;0.00;;
10418;SDS011;5256;48.728;9.140;2022-07-06T14:53:25;0.10;;;0.10;;
10418;SDS011;5256;48.728;9.140;2022-07-06T14:55:50;0.10;;;0.10;;
10418;SDS011;5256;48.728;9.140;2022-07-06T14:58:16;0.10;;;0.10;;
10418;SDS011;5256;48.728;9.140;2022-07-06T15:00:45;0.10;;;0.10;;
10418;SDS011;5256;48.728;9.140;2022-07-06T15:03:11;0.10;;;0.10;;
10418;SDS011;5256;48.728;9.140;2022-07-06T15:05:36;0.10;;;0.10;;
10418;SDS011;5256;48.728;9.140;2022-07-06T15:08:02;0.10;;;0.10;;
10418;SDS011;5256;48.728;9.140;2022-07-06T15:10:29;0.10;;;0.10;;
10418;SDS011;5256;48.728;9.140;2022-07-06T15:12:55;0.10;;;0.10;;
10418;SDS011;5256;48.728;9.140;2022-07-06T15:15:21;0.10;;;0.10;;
10418;SDS011;5256;48.728;9.140;2022-07-06T15:17:46;0.10;;;0.10;;
10418;SDS011;5256;48.728;9.140;2022-07-06T15:20:12;0.10;;;0.10;;